sensor_id;sensor_type;location;lat;lon;timestamp;P1;durP1;ratioP1;P2;durP2;ratioP2
12005;SDS011;6062;47.294;12.182;2023-04-24T00:00:34;280.73;;;5.35;;
12005;SDS011;6062;47.294;12.182;2023-04-24T00:03:00;253.80;;;6.90;;
12005;SDS011;6062;47.294;12.182;2023-04-24T00:05:28;329.20;;;8.25;;
12005;SDS011;6062;47.294;12.182;2023-04-24T00:07:54;363.25;;;11.32;;
12005;SDS011;6062;47.294;12.182;2023-04-24T00:10:20;281.02;;;7.75;;
12005;SDS011;6062;47.294;12.182;2023-04-24T00:12:46;328.85;;;7.68;;
12005;SDS011;6062;47.294;12.182;2023-04-24T00:15:12;401.08;;;11.68;;
12005;SDS011;6062;47.294;12.182;2023-04-24T00:17:38;265.85;;;7.20;;
12005;SDS011;6062;47.294;12.182;2023-04-24T00:20:04;223.80;;;7.22;;
12005;SDS011;6062;47.294;12.182;2023-04-24T00:22:31;163.43;;;5.10;;
12005;SDS011;6062;47.294;12.182;2023-04-24T00:24:58;238.30;;;6.90;;
12005;SDS011;6062;47.294;12.182;2023-04-24T00:27:23;46.65;;;1.88;;
12005;SDS011;6062;47.294;12.182;2023-04-24T00:29:50;101.10;;;3.17;;
12005;SDS011;6062;47.294;12.182;2023-04-24T00:32:15;198.23;;;5.90;;
12005;SDS011;6062;47.294;12.182;2023-04-24T00:34:42;46.65;;;2.10;;
12005;SDS011;6062;47.294;12.182;2023-04-24T00:37:08;106.88;;;2.75;;
12005;SDS011;6062;47.294;12.182;2023-04-24T00:39:34;11.95;;;0.85;;
12005;SDS011;6062;47.294;12.182;2023-04-24T00:41:59;0.73;;;0.40;;
12005;SDS011;6062;47.294;12.182;2023-04-24T00:44:26;34.78;;;1.90;;
12005;SDS011;6062;47.294;12.182;2023-04-24T00:46:52;153.85;;;5.32;;
12005;SDS011;6062;47.294;12.182;2023-04-24T00:49:23;121.20;;;4.25;;
12005;SDS011;6062;47.294;12.182;2023-04-24T00:51:49;61.33;;;2.65;;
12005;SDS011;6062;47.294;12.182;2023-04-24T00:54:16;40.17;;;1.90;;
12005;SDS011;6062;47.294;12.182;2023-04-24T00:56:43;0.32;;;0.32;;
12005;SDS011;6062;47.294;12.182;2023-04-24T00:59:10;0.30;;;0.30;;
12005;SDS011;6062;47.294;12.182;2023-04-24T01:01:42;0.30;;;0.30;;
12005;SDS011;6062;47.294;12.182;2023-04-24T01:04:10;0.40;;;0.40;;
12005;SDS011;6062;47.294;12.182;2023-04-24T01:06:38;0.30;;;0.30;;
12005;SDS011;6062;47.294;12.182;2023-04-24T01:09:05;0.32;;;0.32;;
12005;SDS011;6062;47.294;12.182;2023-04-24T01:11:34;0.30;;;0.30;;
12005;SDS011;6062;47.294;12.182;2023-04-24T01:14:01;0.40;;;0.40;;
12005;SDS011;6062;47.294;12.182;2023-04-24T01:16:27;0.40;;;0.40;;
12005;SDS011;6062;47.294;12.182;2023-04-24T01:18:53;0.40;;;0.40;;
12005;SDS011;6062;47.294;12.182;2023-04-24T01:21:19;0.30;;;0.30;;
12005;SDS011;6062;47.294;12.182;2023-04-24T01:23:46;0.30;;;0.30;;
12005;SDS011;6062;47.294;12.182;2023-04-24T01:26:13;0.40;;;0.40;;
12005;SDS011;6062;47.294;12.182;2023-04-24T01:28:41;0.30;;;0.30;;
12005;SDS011;6062;47.294;12.182;2023-04-24T01:31:07;0.40;;;0.40;;
12005;SDS011;6062;47.294;12.182;2023-04-24T01:33:33;0.30;;;0.30;;
12005;SDS011;6062;47.294;12.182;2023-04-24T01:35:59;0.30;;;0.30;;
12005;SDS011;6062;47.294;12.182;2023-04-24T01:38:25;0.40;;;0.40;;
12005;SDS011;6062;47.294;12.182;2023-04-24T01:40:51;0.30;;;0.30;;
12005;SDS011;6062;47.294;12.182;2023-04-24T01:43:18;0.30;;;0.30;;
12005;SDS011;6062;47.294;12.182;2023-04-24T01:45:44;0.30;;;0.30;;
12005;SDS011;6062;47.294;12.182;2023-04-24T01:48:11;0.30;;;0.30;;
12005;SDS011;6062;47.294;12.182;2023-04-24T01:50:38;0.40;;;0.40;;
12005;SDS011;6062;47.294;12.182;2023-04-24T01:53:04;0.30;;;0.30;;
12005;SDS011;6062;47.294;12.182;2023-04-24T01:55:30;0.30;;;0.30;;
12005;SDS011;6062;47.294;12.182;2023-04-24T01:57:56;0.30;;;0.30;;
12005;SDS011;6062;47.294;12.182;2023-04-24T02:00:24;0.40;;;0.40;;
12005;SDS011;6062;47.294;12.182;2023-04-24T02:02:50;0.40;;;0.40;;
12005;SDS011;6062;47.294;12.182;2023-04-24T02:05:16;0.50;;;0.47;;
12005;SDS011;6062;47.294;12.182;2023-04-24T02:07:42;0.40;;;0.40;;
12005;SDS011;6062;47.294;12.182;2023-04-24T02:10:07;0.40;;;0.40;;
12005;SDS011;6062;47.294;12.182;2023-04-24T02:12:34;0.40;;;0.40;;
12005;SDS011;6062;47.294;12.182;2023-04-24T02:15:00;0.30;;;0.30;;
12005;SDS011;6062;47.294;12.182;2023-04-24T02:17:26;6.70;;;0.50;;
12005;SDS011;6062;47.294;12.182;2023-04-24T02:19:52;11.27;;;0.80;;
12005;SDS011;6062;47.294;12.182;2023-04-24T02:22:17;15.33;;;0.90;;
12005;SDS011;6062;47.294;12.182;2023-04-24T02:24:43;7.83;;;0.60;;
12005;SDS011;6062;47.294;12.182;2023-04-24T02:27:09;5.30;;;0.50;;
12005;SDS011;6062;47.294;12.182;2023-04-24T02:29:36;0.37;;;0.37;;
12005;SDS011;6062;47.294;12.182;2023-04-24T02:32:02;1.70;;;0.40;;
12005;SDS011;6062;47.294;12.182;2023-04-24T02:34:27;0.40;;;0.40;;
12005;SDS011;6062;47.294;12.182;2023-04-24T02:36:53;0.30;;;0.30;;
12005;SDS011;6062;47.294;12.182;2023-04-24T02:39:19;0.40;;;0.40;;
12005;SDS011;6062;47.294;12.182;2023-04-24T02:41:45;0.40;;;0.40;;
12005;SDS011;6062;47.294;12.182;2023-04-24T02:44:11;0.40;;;0.40;;
12005;SDS011;6062;47.294;12.182;2023-04-24T02:46:37;0.40;;;0.40;;
12005;SDS011;6062;47.294;12.182;2023-04-24T02:49:03;0.30;;;0.30;;
12005;SDS011;6062;47.294;12.182;2023-04-24T02:51:28;0.30;;;0.30;;
12005;SDS011;6062;47.294;12.182;2023-04-24T02:53:55;0.40;;;0.40;;
12005;SDS011;6062;47.294;12.182;2023-04-24T02:56:21;0.30;;;0.30;;
12005;SDS011;6062;47.294;12.182;2023-04-24T02:58:46;0.40;;;0.40;;
12005;SDS011;6062;47.294;12.182;2023-04-24T03:01:12;0.33;;;0.33;;
12005;SDS011;6062;47.294;12.182;2023-04-24T03:03:38;0.40;;;0.40;;
12005;SDS011;6062;47.294;12.182;2023-04-24T03:06:04;0.40;;;0.40;;
12005;SDS011;6062;47.294;12.182;2023-04-24T03:08:31;0.40;;;0.40;;
12005;SDS011;6062;47.294;12.182;2023-04-24T03:10:57;0.50;;;0.50;;
12005;SDS011;6062;47.294;12.182;2023-04-24T03:13:23;0.40;;;0.40;;
12005;SDS011;6062;47.294;12.182;2023-04-24T03:15:48;0.40;;;0.40;;
12005;SDS011;6062;47.294;12.182;2023-04-24T03:18:14;0.40;;;0.40;;
12005;SDS011;6062;47.294;12.182;2023-04-24T03:20:40;0.40;;;0.40;;
12005;SDS011;6062;47.294;12.182;2023-04-24T03:23:06;0.40;;;0.40;;
12005;SDS011;6062;47.294;12.182;2023-04-24T03:25:31;0.40;;;0.40;;
12005;SDS011;6062;47.294;12.182;2023-04-24T03:27:57;0.30;;;0.30;;
12005;SDS011;6062;47.294;12.182;2023-04-24T03:30:23;0.40;;;0.40;;
12005;SDS011;6062;47.294;12.182;2023-04-24T03:32:48;0.40;;;0.40;;
12005;SDS011;6062;47.294;12.182;2023-04-24T03:35:14;0.30;;;0.30;;
12005;SDS011;6062;47.294;12.182;2023-04-24T03:37:40;0.30;;;0.30;;
12005;SDS011;6062;47.294;12.182;2023-04-24T03:40:06;0.30;;;0.30;;
12005;SDS011;6062;47.294;12.182;2023-04-24T03:42:33;0.40;;;0.40;;
12005;SDS011;6062;47.294;12.182;2023-04-24T03:44:58;0.30;;;0.30;;
12005;SDS011;6062;47.294;12.182;2023-04-24T03:47:24;0.40;;;0.40;;
12005;SDS011;6062;47.294;12.182;2023-04-24T03:49:50;0.30;;;0.30;;
12005;SDS011;6062;47.294;12.182;2023-04-24T03:52:16;0.30;;;0.30;;
12005;SDS011;6062;47.294;12.182;2023-04-24T03:54:41;0.30;;;0.30;;
12005;SDS011;6062;47.294;12.182;2023-04-24T03:57:07;0.30;;;0.30;;
12005;SDS011;6062;47.294;12.182;2023-04-24T03:59:33;0.30;;;0.30;;
12005;SDS011;6062;47.294;12.182;2023-04-24T04:01:58;0.40;;;0.40;;
12005;SDS011;6062;47.294;12.182;2023-04-24T04:04:24;0.30;;;0.30;;
12005;SDS011;6062;47.294;12.182;2023-04-24T04:06:50;0.37;;;0.37;;
12005;SDS011;6062;47.294;12.182;2023-04-24T04:09:16;0.33;;;0.33;;
12005;SDS011;6062;47.294;12.182;2023-04-24T04:11:41;0.30;;;0.30;;
12005;SDS011;6062;47.294;12.182;2023-04-24T04:14:07;0.37;;;0.37;;
12005;SDS011;6062;47.294;12.182;2023-04-24T04:16:33;0.37;;;0.37;;
12005;SDS011;6062;47.294;12.182;2023-04-24T04:18:58;0.40;;;0.40;;
12005;SDS011;6062;47.294;12.182;2023-04-24T04:21:24;0.40;;;0.40;;
12005;SDS011;6062;47.294;12.182;2023-04-24T04:23:52;0.40;;;0.40;;
12005;SDS011;6062;47.294;12.182;2023-04-24T04:26:17;0.40;;;0.40;;
12005;SDS011;6062;47.294;12.182;2023-04-24T04:28:44;0.40;;;0.40;;
12005;SDS011;6062;47.294;12.182;2023-04-24T04:31:09;0.40;;;0.40;;
12005;SDS011;6062;47.294;12.182;2023-04-24T04:33:35;0.40;;;0.40;;
12005;SDS011;6062;47.294;12.182;2023-04-24T04:36:03;0.40;;;0.40;;
12005;SDS011;6062;47.294;12.182;2023-04-24T04:38:29;0.30;;;0.30;;
12005;SDS011;6062;47.294;12.182;2023-04-24T04:40:55;0.93;;;0.40;;
12005;SDS011;6062;47.294;12.182;2023-04-24T04:43:24;0.40;;;0.40;;
12005;SDS011;6062;47.294;12.182;2023-04-24T04:45:50;0.40;;;0.40;;
12005;SDS011;6062;47.294;12.182;2023-04-24T04:48:17;0.40;;;0.40;;
12005;SDS011;6062;47.294;12.182;2023-04-24T04:50:43;0.40;;;0.40;;
12005;SDS011;6062;47.294;12.182;2023-04-24T04:53:10;0.30;;;0.30;;
12005;SDS011;6062;47.294;12.182;2023-04-24T04:55:36;8.43;;;0.67;;
12005;SDS011;6062;47.294;12.182;2023-04-24T04:58:02;0.40;;;0.40;;
12005;SDS011;6062;47.294;12.182;2023-04-24T05:00:28;0.30;;;0.30;;
12005;SDS011;6062;47.294;12.182;2023-04-24T05:02:59;0.57;;;0.30;;
12005;SDS011;6062;47.294;12.182;2023-04-24T05:05:25;0.40;;;0.40;;
12005;SDS011;6062;47.294;12.182;2023-04-24T05:07:50;0.40;;;0.40;;
12005;SDS011;6062;47.294;12.182;2023-04-24T05:10:16;0.40;;;0.40;;
12005;SDS011;6062;47.294;12.182;2023-04-24T05:12:42;0.40;;;0.40;;
12005;SDS011;6062;47.294;12.182;2023-04-24T05:15:08;3.13;;;0.50;;
12005;SDS011;6062;47.294;12.182;2023-04-24T05:17:34;0.40;;;0.40;;
12005;SDS011;6062;47.294;12.182;2023-04-24T05:20:00;1.47;;;0.40;;
12005;SDS011;6062;47.294;12.182;2023-04-24T05:22:26;0.40;;;0.40;;
12005;SDS011;6062;47.294;12.182;2023-04-24T05:24:52;87.30;;;2.90;;
12005;SDS011;6062;47.294;12.182;2023-04-24T05:27:18;68.10;;;2.77;;
12005;SDS011;6062;47.294;12.182;2023-04-24T05:29:44;23.67;;;1.10;;
12005;SDS011;6062;47.294;12.182;2023-04-24T05:32:10;9.13;;;0.73;;
12005;SDS011;6062;47.294;12.182;2023-04-24T05:34:35;52.00;;;2.10;;
12005;SDS011;6062;47.294;12.182;2023-04-24T05:37:01;2.90;;;0.40;;
12005;SDS011;6062;47.294;12.182;2023-04-24T05:39:27;41.15;;;1.77;;
12005;SDS011;6062;47.294;12.182;2023-04-24T05:41:53;2.43;;;0.40;;
12005;SDS011;6062;47.294;12.182;2023-04-24T05:44:22;12.03;;;0.70;;
12005;SDS011;6062;47.294;12.182;2023-04-24T05:46:48;29.07;;;1.13;;
12005;SDS011;6062;47.294;12.182;2023-04-24T05:49:14;4.43;;;0.50;;
12005;SDS011;6062;47.294;12.182;2023-04-24T05:51:39;1.80;;;0.60;;
12005;SDS011;6062;47.294;12.182;2023-04-24T05:54:06;9.27;;;0.57;;
12005;SDS011;6062;47.294;12.182;2023-04-24T05:56:31;24.47;;;1.10;;
12005;SDS011;6062;47.294;12.182;2023-04-24T05:58:57;10.20;;;0.70;;
12005;SDS011;6062;47.294;12.182;2023-04-24T06:01:23;7.87;;;0.67;;
12005;SDS011;6062;47.294;12.182;2023-04-24T06:03:50;60.10;;;2.13;;
12005;SDS011;6062;47.294;12.182;2023-04-24T06:06:15;64.93;;;2.25;;
12005;SDS011;6062;47.294;12.182;2023-04-24T06:08:41;0.30;;;0.30;;
12005;SDS011;6062;47.294;12.182;2023-04-24T06:11:09;1.42;;;0.40;;
12005;SDS011;6062;47.294;12.182;2023-04-24T06:13:35;0.38;;;0.38;;
12005;SDS011;6062;47.294;12.182;2023-04-24T06:16:00;0.40;;;0.40;;
12005;SDS011;6062;47.294;12.182;2023-04-24T06:18:26;0.40;;;0.40;;
12005;SDS011;6062;47.294;12.182;2023-04-24T06:20:52;0.30;;;0.30;;
12005;SDS011;6062;47.294;12.182;2023-04-24T06:23:18;0.40;;;0.40;;
12005;SDS011;6062;47.294;12.182;2023-04-24T06:25:43;0.77;;;0.32;;
12005;SDS011;6062;47.294;12.182;2023-04-24T06:28:09;0.40;;;0.40;;
12005;SDS011;6062;47.294;12.182;2023-04-24T06:30:35;0.30;;;0.30;;
12005;SDS011;6062;47.294;12.182;2023-04-24T06:33:00;0.35;;;0.35;;
12005;SDS011;6062;47.294;12.182;2023-04-24T06:35:26;0.30;;;0.30;;
12005;SDS011;6062;47.294;12.182;2023-04-24T06:37:52;0.38;;;0.38;;
12005;SDS011;6062;47.294;12.182;2023-04-24T06:40:18;0.38;;;0.38;;
12005;SDS011;6062;47.294;12.182;2023-04-24T06:42:43;0.40;;;0.40;;
12005;SDS011;6062;47.294;12.182;2023-04-24T06:45:09;0.40;;;0.40;;
12005;SDS011;6062;47.294;12.182;2023-04-24T06:47:36;0.45;;;0.40;;
12005;SDS011;6062;47.294;12.182;2023-04-24T06:50:02;0.30;;;0.30;;
12005;SDS011;6062;47.294;12.182;2023-04-24T06:52:29;0.30;;;0.30;;
12005;SDS011;6062;47.294;12.182;2023-04-24T06:55:01;0.63;;;0.30;;
12005;SDS011;6062;47.294;12.182;2023-04-24T06:57:28;0.75;;;0.40;;
12005;SDS011;6062;47.294;12.182;2023-04-24T06:59:54;0.30;;;0.30;;
12005;SDS011;6062;47.294;12.182;2023-04-24T07:02:20;0.30;;;0.30;;
12005;SDS011;6062;47.294;12.182;2023-04-24T07:04:46;0.30;;;0.30;;
12005;SDS011;6062;47.294;12.182;2023-04-24T07:07:14;0.40;;;0.40;;
12005;SDS011;6062;47.294;12.182;2023-04-24T07:09:41;0.30;;;0.30;;
12005;SDS011;6062;47.294;12.182;2023-04-24T07:12:07;0.35;;;0.35;;
12005;SDS011;6062;47.294;12.182;2023-04-24T07:14:35;0.30;;;0.30;;
12005;SDS011;6062;47.294;12.182;2023-04-24T07:17:02;0.30;;;0.30;;
12005;SDS011;6062;47.294;12.182;2023-04-24T07:19:30;9.27;;;0.68;;
12005;SDS011;6062;47.294;12.182;2023-04-24T07:21:56;6.93;;;0.50;;
12005;SDS011;6062;47.294;12.182;2023-04-24T07:24:23;0.22;;;0.22;;
12005;SDS011;6062;47.294;12.182;2023-04-24T07:26:52;0.30;;;0.30;;
12005;SDS011;6062;47.294;12.182;2023-04-24T07:29:19;0.20;;;0.20;;
12005;SDS011;6062;47.294;12.182;2023-04-24T07:31:44;18.58;;;0.63;;
12005;SDS011;6062;47.294;12.182;2023-04-24T07:34:10;0.30;;;0.30;;
12005;SDS011;6062;47.294;12.182;2023-04-24T07:36:36;0.38;;;0.38;;
12005;SDS011;6062;47.294;12.182;2023-04-24T07:39:03;0.30;;;0.30;;
12005;SDS011;6062;47.294;12.182;2023-04-24T07:41:30;0.93;;;0.40;;
12005;SDS011;6062;47.294;12.182;2023-04-24T07:43:57;0.30;;;0.30;;
12005;SDS011;6062;47.294;12.182;2023-04-24T07:46:23;0.30;;;0.30;;
12005;SDS011;6062;47.294;12.182;2023-04-24T07:48:49;0.30;;;0.30;;
12005;SDS011;6062;47.294;12.182;2023-04-24T07:51:15;0.30;;;0.30;;
12005;SDS011;6062;47.294;12.182;2023-04-24T07:53:42;0.30;;;0.30;;
12005;SDS011;6062;47.294;12.182;2023-04-24T07:56:08;0.52;;;0.30;;
12005;SDS011;6062;47.294;12.182;2023-04-24T07:58:34;0.28;;;0.28;;
12005;SDS011;6062;47.294;12.182;2023-04-24T08:01:00;0.30;;;0.30;;
12005;SDS011;6062;47.294;12.182;2023-04-24T08:03:26;0.30;;;0.30;;
12005;SDS011;6062;47.294;12.182;2023-04-24T08:05:51;0.30;;;0.30;;
12005;SDS011;6062;47.294;12.182;2023-04-24T08:08:17;0.20;;;0.20;;
12005;SDS011;6062;47.294;12.182;2023-04-24T08:10:46;0.30;;;0.30;;
12005;SDS011;6062;47.294;12.182;2023-04-24T08:13:11;0.30;;;0.30;;
12005;SDS011;6062;47.294;12.182;2023-04-24T08:15:37;0.30;;;0.30;;
12005;SDS011;6062;47.294;12.182;2023-04-24T08:18:03;0.20;;;0.20;;
12005;SDS011;6062;47.294;12.182;2023-04-24T08:20:29;0.20;;;0.20;;
12005;SDS011;6062;47.294;12.182;2023-04-24T08:22:55;0.30;;;0.30;;
12005;SDS011;6062;47.294;12.182;2023-04-24T08:25:21;0.28;;;0.28;;
12005;SDS011;6062;47.294;12.182;2023-04-24T08:27:48;0.30;;;0.30;;
12005;SDS011;6062;47.294;12.182;2023-04-24T08:30:13;0.20;;;0.20;;
12005;SDS011;6062;47.294;12.182;2023-04-24T08:32:39;0.20;;;0.20;;
12005;SDS011;6062;47.294;12.182;2023-04-24T08:35:06;0.20;;;0.20;;
12005;SDS011;6062;47.294;12.182;2023-04-24T08:37:34;0.30;;;0.30;;
12005;SDS011;6062;47.294;12.182;2023-04-24T08:40:00;0.20;;;0.20;;
12005;SDS011;6062;47.294;12.182;2023-04-24T08:42:33;0.30;;;0.30;;
12005;SDS011;6062;47.294;12.182;2023-04-24T08:45:01;0.30;;;0.30;;
12005;SDS011;6062;47.294;12.182;2023-04-24T08:47:27;0.30;;;0.30;;
12005;SDS011;6062;47.294;12.182;2023-04-24T08:49:54;0.30;;;0.30;;
12005;SDS011;6062;47.294;12.182;2023-04-24T08:52:22;0.40;;;0.40;;
12005;SDS011;6062;47.294;12.182;2023-04-24T08:54:48;0.30;;;0.30;;
12005;SDS011;6062;47.294;12.182;2023-04-24T08:57:14;0.30;;;0.30;;
12005;SDS011;6062;47.294;12.182;2023-04-24T08:59:41;0.30;;;0.30;;
12005;SDS011;6062;47.294;12.182;2023-04-24T09:02:09;0.40;;;0.40;;
12005;SDS011;6062;47.294;12.182;2023-04-24T09:04:36;0.30;;;0.30;;
12005;SDS011;6062;47.294;12.182;2023-04-24T09:07:03;0.30;;;0.30;;
12005;SDS011;6062;47.294;12.182;2023-04-24T09:09:31;0.30;;;0.30;;
12005;SDS011;6062;47.294;12.182;2023-04-24T09:11:59;0.30;;;0.30;;
12005;SDS011;6062;47.294;12.182;2023-04-24T09:14:26;0.30;;;0.30;;
12005;SDS011;6062;47.294;12.182;2023-04-24T09:16:52;0.30;;;0.30;;
12005;SDS011;6062;47.294;12.182;2023-04-24T09:19:18;0.30;;;0.30;;
12005;SDS011;6062;47.294;12.182;2023-04-24T09:21:47;0.30;;;0.30;;
12005;SDS011;6062;47.294;12.182;2023-04-24T09:24:20;0.20;;;0.20;;
12005;SDS011;6062;47.294;12.182;2023-04-24T09:26:58;0.30;;;0.30;;
12005;SDS011;6062;47.294;12.182;2023-04-24T09:29:26;4.00;;;0.40;;
12005;SDS011;6062;47.294;12.182;2023-04-24T09:31:53;4.63;;;0.45;;
12005;SDS011;6062;47.294;12.182;2023-04-24T09:34:22;24.65;;;1.10;;
12005;SDS011;6062;47.294;12.182;2023-04-24T09:36:51;0.20;;;0.20;;
12005;SDS011;6062;47.294;12.182;2023-04-24T09:39:19;0.20;;;0.20;;
12005;SDS011;6062;47.294;12.182;2023-04-24T09:41:46;0.20;;;0.20;;
12005;SDS011;6062;47.294;12.182;2023-04-24T09:44:21;0.20;;;0.20;;
12005;SDS011;6062;47.294;12.182;2023-04-24T09:46:53;0.25;;;0.25;;
12005;SDS011;6062;47.294;12.182;2023-04-24T09:49:25;0.20;;;0.20;;
12005;SDS011;6062;47.294;12.182;2023-04-24T09:52:03;1.38;;;0.20;;
12005;SDS011;6062;47.294;12.182;2023-04-24T09:54:30;12.32;;;0.60;;
12005;SDS011;6062;47.294;12.182;2023-04-24T09:56:56;0.20;;;0.20;;
12005;SDS011;6062;47.294;12.182;2023-04-24T09:59:22;5.07;;;0.30;;
12005;SDS011;6062;47.294;12.182;2023-04-24T10:01:48;0.20;;;0.20;;
12005;SDS011;6062;47.294;12.182;2023-04-24T10:04:19;4.05;;;0.40;;
12005;SDS011;6062;47.294;12.182;2023-04-24T10:06:48;5.05;;;0.40;;
12005;SDS011;6062;47.294;12.182;2023-04-24T10:09:24;0.20;;;0.20;;
12005;SDS011;6062;47.294;12.182;2023-04-24T10:11:52;0.20;;;0.20;;
12005;SDS011;6062;47.294;12.182;2023-04-24T10:18:00;0.20;;;0.20;;
12005;SDS011;6062;47.294;12.182;2023-04-24T10:20:29;0.30;;;0.30;;
12005;SDS011;6062;47.294;12.182;2023-04-24T10:22:58;0.20;;;0.20;;
12005;SDS011;6062;47.294;12.182;2023-04-24T10:25:26;0.20;;;0.20;;
12005;SDS011;6062;47.294;12.182;2023-04-24T10:27:57;0.20;;;0.20;;
12005;SDS011;6062;47.294;12.182;2023-04-24T10:30:25;0.20;;;0.20;;
12005;SDS011;6062;47.294;12.182;2023-04-24T10:33:00;0.30;;;0.30;;
12005;SDS011;6062;47.294;12.182;2023-04-24T10:35:29;0.22;;;0.22;;
12005;SDS011;6062;47.294;12.182;2023-04-24T10:37:58;1.15;;;0.20;;
12005;SDS011;6062;47.294;12.182;2023-04-24T10:40:31;0.20;;;0.20;;
12005;SDS011;6062;47.294;12.182;2023-04-24T10:42:59;0.20;;;0.20;;
12005;SDS011;6062;47.294;12.182;2023-04-24T10:45:30;3.22;;;0.50;;
12005;SDS011;6062;47.294;12.182;2023-04-24T10:48:09;41.05;;;1.50;;
12005;SDS011;6062;47.294;12.182;2023-04-24T10:50:42;4.75;;;0.47;;
12005;SDS011;6062;47.294;12.182;2023-04-24T10:53:16;10.20;;;0.73;;
12005;SDS011;6062;47.294;12.182;2023-04-24T10:55:51;2.75;;;0.50;;
12005;SDS011;6062;47.294;12.182;2023-04-24T10:58:41;2.20;;;0.40;;
12005;SDS011;6062;47.294;12.182;2023-04-24T11:01:29;1.25;;;0.40;;
12005;SDS011;6062;47.294;12.182;2023-04-24T11:04:01;5.10;;;0.45;;
12005;SDS011;6062;47.294;12.182;2023-04-24T11:08:59;44.53;;;1.70;;
12005;SDS011;6062;47.294;12.182;2023-04-24T11:11:32;7.13;;;0.60;;
12005;SDS011;6062;47.294;12.182;2023-04-24T11:16:33;4.53;;;0.70;;
12005;SDS011;6062;47.294;12.182;2023-04-24T11:26:58;0.32;;;0.32;;
12005;SDS011;6062;47.294;12.182;2023-04-24T11:29:42;0.40;;;0.40;;
12005;SDS011;6062;47.294;12.182;2023-04-24T11:35:02;1.23;;;0.50;;
12005;SDS011;6062;47.294;12.182;2023-04-24T11:37:34;0.30;;;0.30;;
12005;SDS011;6062;47.294;12.182;2023-04-24T11:40:00;0.30;;;0.30;;
12005;SDS011;6062;47.294;12.182;2023-04-24T11:42:26;0.43;;;0.43;;
12005;SDS011;6062;47.294;12.182;2023-04-24T11:44:53;0.40;;;0.40;;
12005;SDS011;6062;47.294;12.182;2023-04-24T11:47:28;1.20;;;0.40;;
12005;SDS011;6062;47.294;12.182;2023-04-24T11:49:58;0.35;;;0.35;;
12005;SDS011;6062;47.294;12.182;2023-04-24T11:52:26;0.80;;;0.47;;
12005;SDS011;6062;47.294;12.182;2023-04-24T11:54:52;0.40;;;0.40;;
12005;SDS011;6062;47.294;12.182;2023-04-24T11:57:19;0.38;;;0.30;;
12005;SDS011;6062;47.294;12.182;2023-04-24T11:59:46;0.30;;;0.30;;
12005;SDS011;6062;47.294;12.182;2023-04-24T12:02:25;0.40;;;0.40;;
12005;SDS011;6062;47.294;12.182;2023-04-24T12:04:52;0.30;;;0.30;;
12005;SDS011;6062;47.294;12.182;2023-04-24T12:07:18;0.50;;;0.50;;
12005;SDS011;6062;47.294;12.182;2023-04-24T12:09:55;0.55;;;0.55;;
12005;SDS011;6062;47.294;12.182;2023-04-24T12:12:25;0.63;;;0.40;;
12005;SDS011;6062;47.294;12.182;2023-04-24T12:14:53;0.50;;;0.40;;
12005;SDS011;6062;47.294;12.182;2023-04-24T12:17:26;0.30;;;0.30;;
12005;SDS011;6062;47.294;12.182;2023-04-24T12:20:03;1.02;;;0.70;;
12005;SDS011;6062;47.294;12.182;2023-04-24T12:22:51;0.70;;;0.70;;
12005;SDS011;6062;47.294;12.182;2023-04-24T12:25:22;9.75;;;1.08;;
12005;SDS011;6062;47.294;12.182;2023-04-24T12:28:11;0.77;;;0.70;;
12005;SDS011;6062;47.294;12.182;2023-04-24T12:30:41;0.90;;;0.73;;
12005;SDS011;6062;47.294;12.182;2023-04-24T12:33:16;0.70;;;0.70;;
12005;SDS011;6062;47.294;12.182;2023-04-24T12:35:47;0.85;;;0.80;;
12005;SDS011;6062;47.294;12.182;2023-04-24T12:38:16;0.80;;;0.80;;
12005;SDS011;6062;47.294;12.182;2023-04-24T12:41:00;0.95;;;0.80;;
12005;SDS011;6062;47.294;12.182;2023-04-24T12:43:29;0.77;;;0.70;;
12005;SDS011;6062;47.294;12.182;2023-04-24T12:45:55;0.68;;;0.68;;
12005;SDS011;6062;47.294;12.182;2023-04-24T12:48:20;0.70;;;0.60;;
12005;SDS011;6062;47.294;12.182;2023-04-24T12:50:47;0.40;;;0.40;;
12005;SDS011;6062;47.294;12.182;2023-04-24T12:53:13;0.40;;;0.40;;
12005;SDS011;6062;47.294;12.182;2023-04-24T12:55:40;0.40;;;0.40;;
12005;SDS011;6062;47.294;12.182;2023-04-24T12:58:06;0.40;;;0.40;;
12005;SDS011;6062;47.294;12.182;2023-04-24T13:00:32;0.40;;;0.40;;
12005;SDS011;6062;47.294;12.182;2023-04-24T13:02:58;0.40;;;0.40;;
12005;SDS011;6062;47.294;12.182;2023-04-24T13:05:24;0.52;;;0.52;;
12005;SDS011;6062;47.294;12.182;2023-04-24T13:07:50;0.32;;;0.32;;
12005;SDS011;6062;47.294;12.182;2023-04-24T13:10:15;0.40;;;0.40;;
12005;SDS011;6062;47.294;12.182;2023-04-24T13:12:41;0.32;;;0.32;;
12005;SDS011;6062;47.294;12.182;2023-04-24T13:15:10;0.40;;;0.40;;
12005;SDS011;6062;47.294;12.182;2023-04-24T13:17:36;0.45;;;0.40;;
12005;SDS011;6062;47.294;12.182;2023-04-24T13:20:01;0.30;;;0.30;;
12005;SDS011;6062;47.294;12.182;2023-04-24T13:22:28;0.30;;;0.30;;
12005;SDS011;6062;47.294;12.182;2023-04-24T13:24:53;1.15;;;0.40;;
12005;SDS011;6062;47.294;12.182;2023-04-24T13:27:19;0.30;;;0.30;;
12005;SDS011;6062;47.294;12.182;2023-04-24T13:29:45;0.30;;;0.30;;
12005;SDS011;6062;47.294;12.182;2023-04-24T13:32:11;0.30;;;0.30;;
12005;SDS011;6062;47.294;12.182;2023-04-24T13:34:36;0.47;;;0.30;;
12005;SDS011;6062;47.294;12.182;2023-04-24T13:37:02;0.20;;;0.20;;
12005;SDS011;6062;47.294;12.182;2023-04-24T13:39:29;0.22;;;0.22;;
12005;SDS011;6062;47.294;12.182;2023-04-24T13:41:55;0.30;;;0.30;;
12005;SDS011;6062;47.294;12.182;2023-04-24T13:44:22;0.20;;;0.20;;
12005;SDS011;6062;47.294;12.182;2023-04-24T13:46:49;2.40;;;0.40;;
12005;SDS011;6062;47.294;12.182;2023-04-24T13:49:21;0.90;;;0.25;;
12005;SDS011;6062;47.294;12.182;2023-04-24T13:51:49;0.28;;;0.28;;
12005;SDS011;6062;47.294;12.182;2023-04-24T13:54:16;1.60;;;0.40;;
12005;SDS011;6062;47.294;12.182;2023-04-24T13:56:41;11.95;;;0.73;;
12005;SDS011;6062;47.294;12.182;2023-04-24T13:59:07;0.32;;;0.32;;
12005;SDS011;6062;47.294;12.182;2023-04-24T14:01:34;0.35;;;0.35;;
12005;SDS011;6062;47.294;12.182;2023-04-24T14:04:00;20.75;;;1.25;;
12005;SDS011;6062;47.294;12.182;2023-04-24T14:06:25;15.35;;;0.73;;
12005;SDS011;6062;47.294;12.182;2023-04-24T14:08:51;0.50;;;0.50;;
12005;SDS011;6062;47.294;12.182;2023-04-24T14:11:17;0.40;;;0.40;;
12005;SDS011;6062;47.294;12.182;2023-04-24T14:13:44;0.40;;;0.40;;
12005;SDS011;6062;47.294;12.182;2023-04-24T14:16:11;5.47;;;0.75;;
12005;SDS011;6062;47.294;12.182;2023-04-24T14:18:39;10.80;;;1.10;;
12005;SDS011;6062;47.294;12.182;2023-04-24T14:21:04;0.73;;;0.50;;
12005;SDS011;6062;47.294;12.182;2023-04-24T14:23:30;0.73;;;0.50;;
12005;SDS011;6062;47.294;12.182;2023-04-24T14:25:57;0.40;;;0.40;;
12005;SDS011;6062;47.294;12.182;2023-04-24T14:28:23;0.75;;;0.40;;
12005;SDS011;6062;47.294;12.182;2023-04-24T14:30:50;0.60;;;0.50;;
12005;SDS011;6062;47.294;12.182;2023-04-24T14:33:16;0.50;;;0.50;;
12005;SDS011;6062;47.294;12.182;2023-04-24T14:35:42;0.40;;;0.40;;
12005;SDS011;6062;47.294;12.182;2023-04-24T14:38:08;0.60;;;0.60;;
12005;SDS011;6062;47.294;12.182;2023-04-24T14:40:35;0.52;;;0.52;;
12005;SDS011;6062;47.294;12.182;2023-04-24T14:43:02;0.95;;;0.60;;
12005;SDS011;6062;47.294;12.182;2023-04-24T14:45:28;0.40;;;0.40;;
12005;SDS011;6062;47.294;12.182;2023-04-24T14:47:54;1.50;;;0.50;;
12005;SDS011;6062;47.294;12.182;2023-04-24T14:50:21;0.50;;;0.50;;
12005;SDS011;6062;47.294;12.182;2023-04-24T14:52:47;0.47;;;0.47;;
12005;SDS011;6062;47.294;12.182;2023-04-24T14:55:12;0.50;;;0.50;;
12005;SDS011;6062;47.294;12.182;2023-04-24T14:57:39;0.55;;;0.55;;
12005;SDS011;6062;47.294;12.182;2023-04-24T15:00:05;1.17;;;0.55;;
12005;SDS011;6062;47.294;12.182;2023-04-24T15:02:34;0.50;;;0.50;;
12005;SDS011;6062;47.294;12.182;2023-04-24T15:05:02;0.63;;;0.50;;